Station: Rabbit Flat  

  Atmospheric Gas Attenuation - ITU Rec 676-11   ----------------- dB/100km -----------------
Date Time Temp RH % AH g/m3 Dew Point Wind Direction Speed kph Gust kph Barometer mB Rainfall Since 9am 24GHz 47GHz 76GHz 122GHz 134GHz 241GHz
03/09 14:20 32.7 16 5.61 3.6 11 17 1015.1 0 12.6 17.5 22.8 59.3 48.7 165.9
03/09 14:10 32.8 17 5.99 4.6 22 32 1015.2 0 13.4 17.9 23.9 62.1 52.1 178.2
03/09 14:00 33.4 15 5.46 3.3 11 24 1015.3 0 12.3 17.2 22.2 57.7 46.9 159.8
03/09 13:50 34.6 15 5.81 4.2 9 15 1015.5 0 13.0 17.4 22.9 59.5 49.4 168.8
03/09 13:40 32.9 16 5.67 3.8 11 20 1015.7 0 12.7 17.6 22.9 59.7 49.1 167.6
03/09 13:30 33.7 15 5.54 3.5 17 32 1015.8 0 12.4 17.3 22.4 58.1 47.5 161.9
03/09 13:20 33.3 15 5.43 3.2 11 19 1016 0 12.2 17.2 22.2 57.6 46.7 159.1
03/09 13:10 33.3 17 6.15 5 15 24 1016.1 0 13.7 18.1 24.2 63.0 53.4 182.6
03/09 13:00 34 15 5.63 3.7 13 24 1016.4 0 12.6 17.4 22.6 58.6 48.2 164.3
03/09 12:50 32.8 16 5.64 3.7 9 15 1016.6 0 12.7 17.6 22.9 59.6 48.9 166.9
03/09 12:40 32.7 16 5.61 3.6 15 22 1017 0 12.6 17.6 22.9 59.4 48.7 166.2
03/09 12:30 33 16 5.7 3.9 11 22 1017.3 0 12.8 17.6 23.0 59.9 49.4 168.6
03/09 12:20 33.1 17 6.09 4.8 13 19 1017.4 0 13.6 18.1 24.1 62.8 53.0 181.2
03/09 12:10 33.2 16 5.76 4 11 19 1017.6 0 12.9 17.7 23.2 60.2 49.9 170.2
03/09 12:00 33.3 17 6.15 5 7 15 1017.8 0 13.7 18.1 24.3 63.1 53.4 182.9
03/09 11:50 32.7 18 6.31 5.3 11 20 1018 0 14.0 18.4 24.9 64.8 55.4 189.5
03/09 11:40 32.9 18 6.38 5.5 7 15 1018.2 0 14.2 18.5 25.0 65.2 55.9 191.5
03/09 11:30 32.4 19 6.55 5.8 13 22 1018.3 0 14.5 18.8 25.7 66.9 57.9 198.3
03/09 11:20 32 20 6.75 6.2 11 20 1018.4 0 15.0 19.1 26.4 68.8 60.1 206.1
03/09 11:10 32.1 19 6.45 5.6 9 19 1018.6 0 14.3 18.7 25.5 66.4 57.1 195.7
03/09 11:00 31.5 18 5.92 4.3 13 20 1018.7 0 13.3 18.2 24.1 62.8 52.4 179.1
03/09 10:50 31.8 18 6.01 4.6 13 17 1018.7 0 13.5 18.3 24.3 63.2 53.1 181.5
03/09 10:40 31.1 20 6.44 5.5 13 20 1018.8 0 14.4 18.9 25.8 67.1 57.7 197.7
03/09 10:30 31.8 21 7.02 6.8 13 19 1018.8 0 15.5 19.5 27.3 71.2 62.9 216.0
03/09 10:20 30.6 21 6.58 5.8 15 20 1018.8 0 14.7 19.2 26.3 68.6 59.4 203.7
03/09 10:10 30.1 22 6.71 6.1 13 20 1018.9 0 14.9 19.4 26.9 70.1 61.1 209.5
03/09 10:00 29.5 24 7.08 6.8 11 17 1019 0 15.7 20.0 28.2 73.6 65.3 224.1
03/09 09:50 28.8 24 6.82 6.2 15 20 1019.1 0 15.2 19.9 27.6 72.1 63.2 216.7
03/09 09:40 28.4 25 6.95 6.5 11 17 1019 0 15.5 20.1 28.2 73.5 64.8 222.4
03/09 09:30 27.6 27 7.18 6.9 11 17 1019 0 16.0 20.6 29.2 76.2 67.9 233.0
03/09 09:20 26.3 28 6.93 6.4 11 17 1019 0 15.5 20.5 28.8 75.2 66.3 227.3
03/09 09:10 25.5 29 6.87 6.2 11 17 1019 0 15.4 20.6 28.9 75.4 66.3 227.2
03/09 09:00 24.2 32 7.04 6.5 9 13 1019 0 15.8 21.1 29.9 78.1 69.2 237.3
03/09 08:50 23.2 34 7.07 6.5 7 11 1018.9 0 15.9 21.4 30.4 79.3 70.4 241.3
03/09 08:40 22.3 37 7.31 6.9 7 9 1018.9 0 16.5 21.9 31.5 82.4 73.9 253.5
03/09 08:30 21.1 41 7.55 7.3 7 11 1018.8 0 17.0 22.6 32.8 85.8 77.7 266.9
03/09 08:20 20.1 43 7.47 7.1 6 11 1018.7 0 16.9 22.7 32.9 86.1 77.8 266.9
03/09 08:10 18 49 7.53 7.1 4 11 1018.7 0 17.1 23.3 34.0 89.0 80.5 276.4
03/09 08:00 17.3 53 7.81 7.6 2 11 1018.8 0 17.7 23.9 35.3 92.5 84.7 290.8
03/09 07:50 14.9 60 7.65 7.2 0 0 1018.6 0 17.5 24.3 35.8 93.7 85.3 292.6
03/09 07:40 13.2 64 7.35 6.5 6 6 1018.5 0 16.9 24.3 35.4 92.6 83.3 285.4
03/09 07:30 11.8 70 7.37 6.5 6 7 1018.4 0 17.0 24.7 36.1 94.4 85.0 291.3
03/09 07:20 10.9 69 6.86 5.4 4 6 1018.2 0 16.0 24.1 34.5 90.1 79.4 271.3
03/09 07:10 10.4 70 6.75 5.2 4 6 1018.2 0 15.8 24.1 34.2 89.5 78.4 268.0
03/09 07:00 10.3 72 6.9 5.5 6 7 1018.1 0 16.1 24.3 34.9 91.2 80.5 275.2
03/09 06:50 10.9 67 6.67 5 4 6 1018 0 15.6 23.8 33.7 88.1 76.9 262.7
03/09 06:40 10.8 72 7.12 6 9 11 1017.9 0 16.6 24.5 35.5 92.9 82.8 283.4
03/09 06:30 10.7 68 6.68 5 7 11 1017.7 0 15.6 23.9 33.8 88.4 77.2 263.8
03/09 06:20 11.1 67 6.75 5.2 9 15 1017.4 0 15.8 23.8 33.9 88.6 77.7 265.5
03/09 06:10 9.9 75 7 5.7 9 19 1017.5 0 16.3 24.6 35.4 92.7 82.2 281.1
03/09 06:00 10.2 72 6.85 5.4 7 9 1017.2 0 16.0 24.2 34.7 90.7 79.9 273.1
03/09 05:50 10.8 66 6.52 4.7 6 6 1017 0 15.3 23.6 33.1 86.6 75.0 256.1
03/09 05:40 11 65 6.51 4.7 7 9 1016.8 0 15.2 23.5 33.0 86.2 74.7 255.0
03/09 05:30 11.4 62 6.36 4.4 6 7 1016.7 0 14.9 23.1 32.3 84.2 72.4 247.1
03/09 05:20 11.2 64 6.49 4.7 0 0 1016.6 0 15.2 23.4 32.8 85.8 74.2 253.4
03/09 05:10 11.1 66 6.65 5 0 0 1016.4 0 15.5 23.7 33.5 87.5 76.3 260.8
03/09 05:00 10.8 69 6.82 5.3 7 9 1016.2 0 15.9 24.0 34.3 89.6 78.8 269.4
03/09 04:50 10.9 67 6.67 5 9 9 1016.2 0 15.6 23.7 33.6 87.9 76.8 262.3
03/09 04:40 10.9 67 6.67 5 9 11 1016.2 0 15.6 23.7 33.6 87.9 76.8 262.3
03/09 04:30 10.8 67 6.62 4.9 9 9 1016.2 0 15.5 23.7 33.5 87.5 76.2 260.4
03/09 04:20 11.2 66 6.69 5.1 7 7 1016.2 0 15.6 23.7 33.6 87.8 76.7 262.2
03/09 04:10 11.3 67 6.84 5.4 9 9 1016.2 0 15.9 23.9 34.1 89.2 78.6 268.6
03/09 04:00 11.4 69 7.08 5.9 7 9 1016.3 0 16.4 24.2 35.0 91.6 81.5 279.1
03/09 03:50 11.7 63 6.59 4.9 7 7 1016.3 0 15.4 23.4 33.0 86.2 75.0 256.2
03/09 03:40 11.8 68 7.16 6.1 9 9 1016.4 0 16.6 24.3 35.2 92.0 82.2 281.3
03/09 03:30 12.5 60 6.6 5 9 11 1016.4 0 15.4 23.2 32.7 85.5 74.4 254.1
03/09 03:20 12.5 64 7.04 5.9 9 11 1016.4 0 16.3 23.9 34.4 90.0 79.9 273.5
03/09 03:10 12.7 60 6.68 5.1 7 11 1016.4 0 15.5 23.3 32.9 86.1 75.2 256.9
03/09 03:00 12.8 59 6.61 5 7 9 1016.5 0 15.4 23.2 32.6 85.3 74.2 253.6
03/09 02:50 13.1 58 6.62 5 9 9 1016.5 0 15.4 23.1 32.6 85.1 74.1 253.1
03/09 02:40 13 58 6.58 4.9 9 11 1016.5 0 15.3 23.1 32.4 84.8 73.7 251.6
03/09 02:30 13.1 58 6.62 5 9 11 1016.6 0 15.4 23.1 32.6 85.1 74.1 253.1
03/09 02:20 13.4 56 6.51 4.8 11 11 1016.6 0 15.2 22.9 32.0 83.6 72.4 247.4
03/09 02:10 13.6 57 6.71 5.3 9 13 1016.7 0 15.6 23.1 32.7 85.4 74.7 255.4
03/09 02:00 13.3 56 6.47 4.7 11 13 1016.8 0 15.1 22.8 31.9 83.4 72.0 246.0
03/09 01:50 13.5 56 6.55 4.9 11 13 1017 0 15.2 22.9 32.2 84.0 72.9 248.9
03/09 01:40 13.6 55 6.47 4.7 9 11 1017.1 0 15.1 22.8 31.8 83.1 71.8 245.2
03/09 01:30 13.5 56 6.55 4.9 9 9 1017 0 15.2 22.9 32.2 84.0 72.9 248.9
03/09 01:20 13.5 57 6.67 5.2 7 7 1017.2 0 15.5 23.1 32.6 85.2 74.3 254.1
03/09 01:10 13.8 57 6.79 5.4 6 7 1017.3 0 15.7 23.2 32.9 86.1 75.6 258.4
03/09 01:00 13.6 56 6.59 5 6 7 1017.4 0 15.3 23.0 32.3 84.3 73.3 250.4
03/09 00:50 13.9 56 6.71 5.3 7 7 1017.4 0 15.6 23.1 32.6 85.2 74.5 254.6
03/09 00:40 13.7 56 6.63 5.1 9 9 1017.5 0 15.4 23.0 32.4 84.6 73.7 251.8
02/09 23:14 15 54 6.92 5.8 7 7 1017.9 0 16.0 23.1 33.0 86.1 76.0 260.3
02/09 23:10 15.3 54 7.05 6.1 7 7 1017.9 0 16.2 23.2 33.3 87.1 77.3 264.9
02/09 23:00 15.9 47 6.36 4.6 6 7 1017.9 0 14.7 22.1 30.6 79.8 68.5 233.9
02/09 22:50 16.1 47 6.44 4.8 7 7 1018 0 14.9 22.1 30.8 80.3 69.3 236.6
02/09 22:40 15.6 50 6.65 5.2 6 7 1018 0 15.4 22.6 31.7 82.9 72.2 246.9
02/09 22:30 15.9 47 6.36 4.6 4 6 1018.1 0 14.7 22.1 30.6 79.8 68.5 233.9
02/09 22:20 16 47 6.4 4.7 6 7 1018.1 0 14.8 22.1 30.7 80.1 68.9 235.3
02/09 22:10 16.6 46 6.5 4.9 6 7 1018 0 15.0 22.1 30.8 80.4 69.5 237.6
02/09 22:00 17.3 43 6.33 4.6 0 4 1018 0 14.6 21.7 30.0 78.1 67.0 228.7
02/09 21:50 17.2 45 6.59 5.2 4 6 1017.9 0 15.2 22.1 30.9 80.7 70.1 239.6
02/09 21:40 17.1 47 6.84 5.7 6 7 1017.9 0 15.7 22.5 31.8 83.2 73.1 250.2
02/09 21:30 18.4 40 6.29 4.6 6 7 1017.8 0 14.5 21.4 29.4 76.7 65.6 224.0
02/09 21:20 18.6 40 6.37 4.8 6 7 1017.7 0 14.7 21.4 29.6 77.2 66.3 226.6
02/09 21:10 18.6 38 6.05 4 6 6 1017.7 0 14.0 21.0 28.5 74.3 62.7 213.8
02/09 21:00 18.8 39 6.28 4.6 7 9 1017.7 0 14.5 21.3 29.2 76.2 65.1 222.4
02/09 20:50 18.8 50 8.05 8.2 7 9 1017.6 0 18.2 23.8 35.5 93.0 85.9 295.3
02/09 20:40 19.3 41 6.8 5.7 9 9 1017.6 0 15.5 21.9 30.8 80.5 70.7 241.9

Last Refresh: 03-Sep-2026 14:29:30

Bureau of Meteorology